Warning: Javascript must be enabled to use all the features on this page!


Page Loading - Please Wait...

Click to hideNews Bulletins

Peak Streamflow for the Nation

USGS 01505000 CHENANGO RIVER AT SHERBURNE NY

Chenango County, New York
Hydrologic Unit Code 02050102
Latitude  42°40'43", Longitude  75°30'38" NAD83
Drainage area 263  square miles
Contributing drainage area 263  square miles
Gage datum 1,037.16 feet above NGVD29
Output formats
Table
Graph
Tab-separated file
peakfq (watstore) format
Reselect output format
Water
Year
Date Gage
Height
(feet)
Stream-
flow
(cfs)
1936 1936-03-18 10.60 12,5002,7
1938 1938-09-22 8.39 2,520
1939 1939-02-20 9.16 5,150
1940 1940-04-09 9.52 5,620
1941 1941-04-06 9.25 4,960
1942 1942-03-17 9.26 4,700
1943 1943-03-17 9.752 5,720
1944 1944-03-17 9.37 4,680
1945 1945-07-20 9.04 3,510
1946 1946-03-09 9.02 3,430
1947 1947-04-06 9.42 4,790
1948 1948-03-20 9.66 6,450
1949 1949-01-06 8.61 3,040
1950 1950-09-01 9.88 7,000
1951 1951-03-31 9.16 5,120
1952 1952-03-11 9.37 5,710
1953 1952-12-11 9.38 5,740
1954 1954-02-17 13.723,6 2,190
1955 1955-03-11 9.186 4,680
1956 1956-04-06 9.18 5,890
1957 1957-01-23 8.352 3,290
1958 1958-04-07 8.94 4,740
1959 1959-01-22 9.591 6,200
1960 1960-03-31 9.27 5,720
1961 1961-02-26 9.77 8,980
1962 1962-04-01 8.39 3,580
1963 1963-03-27 9.13 5,140
1964 1964-03-05 9.80 9,200
1965 1965-02-09 6.092 1,680
1966 1966-02-14 7.40 2,500
1967 1967-03-29 6.45 1,870
1968 1968-03-21 8.20 3,320
1969 1968-11-19 8.24 3,360
1970 1970-04-03 8.89 4,460
1971 1971-04-14 8.28 3,480
1972 1972-06-22 9.57 7,5009
1973 1972-12-06 8.75 4,150
1974 1973-12-27 8.47 3,700
1975 1975-02-25 8.79 4,230
1976 1976-04-16 8.84 4,340
1977 1977-03-14 9.91 10,100
1978 1977-10-17 9.17 5,300
1979 1979-03-06 9.94 10,400
1980 1980-03-22 9.19 5,560
1981 1981-02-12 8.852 4,540
1982 1982-06-29 7.96 3,100
1983 1983-04-25 8.68 4,150
1984 1984-02-15 9.591 6,640
1985 1985-03-12 7.49 2,710
1986 1986-03-15 9.881 7,070
1987 1986-11-27 8.12 3,260
1988 1988-03-26 7.92 3,070
1989 1989-05-11 7.49 2,710
1990 1990-02-17 8.53 3,860
1991 1990-10-24 8.69 4,170
1992 1992-05-03 6.75 2,210
1993 1993-04-11 9.93 7,180
1994 1994-04-16 8.91 4,540
1995 1995-03-08 5.94 1,770
1996 1996-01-19 10.471 8,0002
1997 1996-12-02 8.99 4,680
1998 1998-03-10 8.61 3,860
1999 1999-01-24 9.20 5,170
2000 2000-02-28 9.56 6,100
2001 2001-04-10 9.53 6,020
2002 2002-05-14 7.13 2,350
2003 2003-03-21 9.08 4,880
2004 2004-07-29 8.80 4,250
2005 2005-04-03 10.78 9,330
2006 2006-06-28 11.35 11,400
2007 2006-11-17 9.52 5,780
2008 2008-03-08 9.19 5,040
2009 2009-03-09 8.19 3,190
2010 2010-01-25 8.47 3,570
2011 2011-09-08 11.64 10,9009
2012 2012-01-27 6.16 1,680
2013 2013-07-01 11.14 8,580
2014 2014-03-30 8.15 2,960
2015 2015-04-10 8.30 2,950
2016 2016-02-25 7.142 2,240
2017 2017-04-07 8.98 4,480
2018 2018-08-15 7.22 2,490
2019 2019-01-24 7.49 2,740
?
  Peak Gage-Height Qualification Codes.
?
  Peak Streamflow Qualification Codes.